sensor_id;sensor_type;location;lat;lon;timestamp;pressure;altitude;pressure_sealevel;temperature;humidity
45525;BME280;31437;58.350;13.828;2022-09-24T00:00:09;100175.47;;;9.18;100.00
45525;BME280;31437;58.350;13.828;2022-09-24T00:02:35;100173.69;;;9.19;100.00
45525;BME280;31437;58.350;13.828;2022-09-24T00:05:01;100172.84;;;9.18;100.00
45525;BME280;31437;58.350;13.828;2022-09-24T00:07:26;100168.50;;;9.17;100.00
45525;BME280;31437;58.350;13.828;2022-09-24T00:09:51;100163.28;;;9.17;100.00
45525;BME280;31437;58.350;13.828;2022-09-24T00:12:16;100162.44;;;9.17;100.00
45525;BME280;31437;58.350;13.828;2022-09-24T00:14:42;100158.97;;;9.16;100.00
45525;BME280;31437;58.350;13.828;2022-09-24T00:17:08;100158.19;;;9.14;100.00
45525;BME280;31437;58.350;13.828;2022-09-24T00:19:33;100159.97;;;9.14;100.00
45525;BME280;31437;58.350;13.828;2022-09-24T00:21:58;100153.88;;;9.13;100.00
45525;BME280;31437;58.350;13.828;2022-09-24T00:24:23;100154.81;;;9.12;100.00
45525;BME280;31437;58.350;13.828;2022-09-24T00:27:07;100152.22;;;9.12;100.00
45525;BME280;31437;58.350;13.828;2022-09-24T00:29:33;100151.44;;;9.10;100.00
45525;BME280;31437;58.350;13.828;2022-09-24T00:31:59;100149.66;;;9.10;100.00
45525;BME280;31437;58.350;13.828;2022-09-24T00:34:24;100148.81;;;9.10;100.00
45525;BME280;31437;58.350;13.828;2022-09-24T00:36:49;100140.13;;;9.09;100.00
45525;BME280;31437;58.350;13.828;2022-09-24T00:39:17;100134.03;;;9.09;100.00
45525;BME280;31437;58.350;13.828;2022-09-24T00:41:43;100133.16;;;9.08;100.00
45525;BME280;31437;58.350;13.828;2022-09-24T00:46:55;100135.88;;;9.07;100.00
45525;BME280;31437;58.350;13.828;2022-09-24T00:49:20;100130.69;;;9.05;100.00
45525;BME280;31437;58.350;13.828;2022-09-24T00:51:46;100128.19;;;9.04;100.00
45525;BME280;31437;58.350;13.828;2022-09-24T00:54:14;100120.31;;;9.04;100.00
45525;BME280;31437;58.350;13.828;2022-09-24T00:56:41;100129.06;;;9.03;100.00
45525;BME280;31437;58.350;13.828;2022-09-24T00:59:08;100122.94;;;9.04;100.00
45525;BME280;31437;58.350;13.828;2022-09-24T01:01:35;100128.22;;;9.02;100.00
45525;BME280;31437;58.350;13.828;2022-09-24T01:04:01;100129.16;;;9.01;100.00
45525;BME280;31437;58.350;13.828;2022-09-24T01:06:27;100128.31;;;9.01;100.00
45525;BME280;31437;58.350;13.828;2022-09-24T01:08:52;100118.75;;;9.00;100.00
45525;BME280;31437;58.350;13.828;2022-09-24T01:22:05;100113.91;;;8.92;100.00
45525;BME280;31437;58.350;13.828;2022-09-24T01:30:08;100116.88;;;8.84;100.00
45525;BME280;31437;58.350;13.828;2022-09-24T01:35:23;100101.66;;;8.75;100.00
45525;BME280;31437;58.350;13.828;2022-09-24T01:37:48;100112.19;;;8.74;100.00
45525;BME280;31437;58.350;13.828;2022-09-24T01:40:16;100110.72;;;8.68;100.00
45525;BME280;31437;58.350;13.828;2022-09-24T01:42:42;100116.00;;;8.67;100.00
45525;BME280;31437;58.350;13.828;2022-09-24T01:45:09;100110.06;;;8.63;100.00
45525;BME280;31437;58.350;13.828;2022-09-24T01:47:37;100113.69;;;8.60;100.00
45525;BME280;31437;58.350;13.828;2022-09-24T01:50:04;100119.84;;;8.59;100.00
45525;BME280;31437;58.350;13.828;2022-09-24T01:52:32;100121.63;;;8.59;100.00
45525;BME280;31437;58.350;13.828;2022-09-24T01:54:59;100125.13;;;8.58;100.00
45525;BME280;31437;58.350;13.828;2022-09-24T01:57:30;100121.63;;;8.59;100.00
45525;BME280;31437;58.350;13.828;2022-09-24T02:00:09;100122.38;;;8.61;100.00
45525;BME280;31437;58.350;13.828;2022-09-24T02:02:42;100117.06;;;8.62;100.00
45525;BME280;31437;58.350;13.828;2022-09-24T02:07:39;100123.00;;;8.66;100.00
45525;BME280;31437;58.350;13.828;2022-09-24T02:10:16;100109.94;;;8.66;100.00
45525;BME280;31437;58.350;13.828;2022-09-24T02:12:42;100115.16;;;8.66;100.00
45525;BME280;31437;58.350;13.828;2022-09-24T02:15:10;100118.72;;;8.65;100.00
45525;BME280;31437;58.350;13.828;2022-09-24T02:17:38;100122.22;;;8.64;100.00
45525;BME280;31437;58.350;13.828;2022-09-24T02:20:07;100113.63;;;8.62;100.00
45525;BME280;31437;58.350;13.828;2022-09-24T02:22:34;100111.06;;;8.60;100.00
45525;BME280;31437;58.350;13.828;2022-09-24T02:25:02;100112.84;;;8.60;100.00
45525;BME280;31437;58.350;13.828;2022-09-24T02:27:28;100113.78;;;8.59;100.00
45525;BME280;31437;58.350;13.828;2022-09-24T02:29:57;100111.16;;;8.59;100.00
45525;BME280;31437;58.350;13.828;2022-09-24T02:32:24;100109.59;;;8.55;100.00
45525;BME280;31437;58.350;13.828;2022-09-24T02:34:51;100114.97;;;8.52;100.00
45525;BME280;31437;58.350;13.828;2022-09-24T02:37:20;100110.84;;;8.46;100.00
45525;BME280;31437;58.350;13.828;2022-09-24T02:39:46;100112.78;;;8.43;100.00
45525;BME280;31437;58.350;13.828;2022-09-24T02:42:12;100106.97;;;8.36;100.00
45525;BME280;31437;58.350;13.828;2022-09-24T02:44:38;100112.38;;;8.31;100.00
45525;BME280;31437;58.350;13.828;2022-09-24T02:47:04;100110.91;;;8.26;100.00
45525;BME280;31437;58.350;13.828;2022-09-24T02:49:30;100108.66;;;8.18;100.00
45525;BME280;31437;58.350;13.828;2022-09-24T02:51:56;100113.28;;;8.11;100.00
45525;BME280;31437;58.350;13.828;2022-09-24T02:54:21;100108.44;;;8.04;100.00
45525;BME280;31437;58.350;13.828;2022-09-24T02:56:46;100111.38;;;7.96;100.00
45525;BME280;31437;58.350;13.828;2022-09-24T02:59:12;100107.25;;;7.90;100.00
45525;BME280;31437;58.350;13.828;2022-09-24T03:01:37;100108.47;;;7.83;100.00
45525;BME280;31437;58.350;13.828;2022-09-24T03:04:03;100100.91;;;7.77;100.00
45525;BME280;31437;58.350;13.828;2022-09-24T03:06:28;100104.63;;;7.71;100.00
45525;BME280;31437;58.350;13.828;2022-09-24T03:08:54;100112.59;;;7.68;100.00
45525;BME280;31437;58.350;13.828;2022-09-24T03:11:20;100103.19;;;7.64;100.00
45525;BME280;31437;58.350;13.828;2022-09-24T03:13:48;100109.31;;;7.63;100.00
45525;BME280;31437;58.350;13.828;2022-09-24T03:16:14;100105.03;;;7.62;100.00
45525;BME280;31437;58.350;13.828;2022-09-24T03:18:40;100098.88;;;7.63;100.00
45525;BME280;31437;58.350;13.828;2022-09-24T03:21:06;100110.97;;;7.66;100.00
45525;BME280;31437;58.350;13.828;2022-09-24T03:23:35;100117.81;;;7.68;100.00
45525;BME280;31437;58.350;13.828;2022-09-24T03:26:00;100122.19;;;7.68;100.00
45525;BME280;31437;58.350;13.828;2022-09-24T03:28:26;100119.63;;;7.66;100.00
45525;BME280;31437;58.350;13.828;2022-09-24T03:30:51;100128.38;;;7.65;100.00
45525;BME280;31437;58.350;13.828;2022-09-24T03:35:54;100124.16;;;7.63;100.00
45525;BME280;31437;58.350;13.828;2022-09-24T03:38:19;100126.81;;;7.61;100.00
45525;BME280;31437;58.350;13.828;2022-09-24T03:40:44;100120.81;;;7.59;100.00
45525;BME280;31437;58.350;13.828;2022-09-24T03:43:09;100121.72;;;7.58;100.00
45525;BME280;31437;58.350;13.828;2022-09-24T03:45:35;100128.72;;;7.58;100.00
45525;BME280;31437;58.350;13.828;2022-09-24T03:48:01;100130.47;;;7.57;100.00
45525;BME280;31437;58.350;13.828;2022-09-24T03:50:27;100127.03;;;7.57;100.00
45525;BME280;31437;58.350;13.828;2022-09-24T03:52:52;100133.13;;;7.56;100.00
45525;BME280;31437;58.350;13.828;2022-09-24T03:55:17;100129.63;;;7.57;99.94
45525;BME280;31437;58.350;13.828;2022-09-24T03:57:42;100134.84;;;7.57;99.80
45525;BME280;31437;58.350;13.828;2022-09-24T04:00:08;100132.25;;;7.57;99.67
45525;BME280;31437;58.350;13.828;2022-09-24T04:02:33;100122.69;;;7.56;99.54
45525;BME280;31437;58.350;13.828;2022-09-24T04:04:59;100131.44;;;7.55;99.42
45525;BME280;31437;58.350;13.828;2022-09-24T04:07:25;100134.06;;;7.55;99.33
45525;BME280;31437;58.350;13.828;2022-09-24T04:09:50;100136.66;;;7.55;99.25
45525;BME280;31437;58.350;13.828;2022-09-24T04:12:15;100141.09;;;7.53;99.17
45525;BME280;31437;58.350;13.828;2022-09-24T04:14:40;100133.41;;;7.49;99.09
45525;BME280;31437;58.350;13.828;2022-09-24T04:17:06;100134.38;;;7.47;99.02
45525;BME280;31437;58.350;13.828;2022-09-24T04:19:31;100137.06;;;7.45;98.99
45525;BME280;31437;58.350;13.828;2022-09-24T04:21:57;100137.19;;;7.42;98.91
45525;BME280;31437;58.350;13.828;2022-09-24T04:24:22;100128.66;;;7.39;98.86
45525;BME280;31437;58.350;13.828;2022-09-24T04:26:47;100130.47;;;7.37;98.83
45525;BME280;31437;58.350;13.828;2022-09-24T04:29:14;100118.47;;;7.33;98.80
45525;BME280;31437;58.350;13.828;2022-09-24T04:31:39;100129.94;;;7.28;98.77
45525;BME280;31437;58.350;13.828;2022-09-24T04:34:04;100131.03;;;7.23;98.75
45525;BME280;31437;58.350;13.828;2022-09-24T04:36:30;100123.31;;;7.20;98.71
45525;BME280;31437;58.350;13.828;2022-09-24T04:38:55;100129.59;;;7.16;98.65
45525;BME280;31437;58.350;13.828;2022-09-24T04:41:21;100130.56;;;7.13;98.62
45525;BME280;31437;58.350;13.828;2022-09-24T04:43:46;100124.75;;;7.07;98.57
45525;BME280;31437;58.350;13.828;2022-09-24T04:46:12;100123.13;;;7.04;98.52
45525;BME280;31437;58.350;13.828;2022-09-24T04:48:37;100116.31;;;7.00;98.49
45525;BME280;31437;58.350;13.828;2022-09-24T04:51:06;100119.91;;;6.97;98.45
45525;BME280;31437;58.350;13.828;2022-09-24T04:53:32;100118.28;;;6.95;98.42
45525;BME280;31437;58.350;13.828;2022-09-24T04:55:57;100119.28;;;6.91;98.39
45525;BME280;31437;58.350;13.828;2022-09-24T04:58:24;100118.66;;;6.86;98.37
45525;BME280;31437;58.350;13.828;2022-09-24T05:00:49;100111.78;;;6.83;98.32
45525;BME280;31437;58.350;13.828;2022-09-24T05:03:15;100111.84;;;6.81;98.27
45525;BME280;31437;58.350;13.828;2022-09-24T05:05:40;100109.34;;;6.78;98.24
45525;BME280;31437;58.350;13.828;2022-09-24T05:08:05;100109.44;;;6.77;98.19
45525;BME280;31437;58.350;13.828;2022-09-24T05:10:31;100107.66;;;6.77;98.16
45525;BME280;31437;58.350;13.828;2022-09-24T05:12:57;100108.47;;;6.79;98.11
45525;BME280;31437;58.350;13.828;2022-09-24T05:15:22;100110.06;;;6.82;98.04
45525;BME280;31437;58.350;13.828;2022-09-24T05:17:47;100116.03;;;6.86;98.03
45525;BME280;31437;58.350;13.828;2022-09-24T05:20:13;100114.16;;;6.89;97.98
45525;BME280;31437;58.350;13.828;2022-09-24T05:22:44;100118.31;;;6.93;97.97
45525;BME280;31437;58.350;13.828;2022-09-24T05:25:10;100115.66;;;6.95;97.95
45525;BME280;31437;58.350;13.828;2022-09-24T05:27:36;100113.91;;;6.95;97.93
45525;BME280;31437;58.350;13.828;2022-09-24T05:30:02;100117.34;;;6.96;97.93
45525;BME280;31437;58.350;13.828;2022-09-24T05:32:27;100125.19;;;6.96;97.90
45525;BME280;31437;58.350;13.828;2022-09-24T05:34:52;100126.09;;;6.95;97.87
45525;BME280;31437;58.350;13.828;2022-09-24T05:37:18;100138.91;;;7.01;97.84
45525;BME280;31437;58.350;13.828;2022-09-24T05:39:43;100146.56;;;7.26;97.75
45525;BME280;31437;58.350;13.828;2022-09-24T05:42:09;100148.44;;;7.65;97.61
45525;BME280;31437;58.350;13.828;2022-09-24T05:44:37;100155.31;;;8.07;97.51
45525;BME280;31437;58.350;13.828;2022-09-24T05:47:03;100167.59;;;8.44;97.45
45525;BME280;31437;58.350;13.828;2022-09-24T05:49:28;100175.72;;;8.95;97.36
45525;BME280;31437;58.350;13.828;2022-09-24T05:51:53;100188.34;;;9.40;97.35
45525;BME280;31437;58.350;13.828;2022-09-24T05:54:18;100201.06;;;9.83;97.38
45525;BME280;31437;58.350;13.828;2022-09-24T05:56:44;100212.09;;;10.22;97.46
45525;BME280;31437;58.350;13.828;2022-09-24T05:59:09;100210.28;;;10.58;97.57
45525;BME280;31437;58.350;13.828;2022-09-24T06:01:34;100219.28;;;10.85;97.73
45525;BME280;31437;58.350;13.828;2022-09-24T06:04:00;100231.72;;;11.13;98.00
45525;BME280;31437;58.350;13.828;2022-09-24T06:06:25;100228.41;;;11.42;98.29
45525;BME280;31437;58.350;13.828;2022-09-24T06:08:51;100233.47;;;11.75;98.66
45525;BME280;31437;58.350;13.828;2022-09-24T06:11:16;100226.44;;;12.05;99.27
45525;BME280;31437;58.350;13.828;2022-09-24T06:13:42;100227.00;;;12.11;100.00
45525;BME280;31437;58.350;13.828;2022-09-24T06:16:08;100220.38;;;12.34;100.00
45525;BME280;31437;58.350;13.828;2022-09-24T06:18:34;100206.66;;;12.57;100.00
45525;BME280;31437;58.350;13.828;2022-09-24T06:21:04;100196.16;;;12.84;100.00
45525;BME280;31437;58.350;13.828;2022-09-24T06:23:31;100169.53;;;13.03;100.00
45525;BME280;31437;58.350;13.828;2022-09-24T06:25:57;100137.84;;;13.17;100.00
45525;BME280;31437;58.350;13.828;2022-09-24T06:28:22;100104.94;;;13.37;100.00
45525;BME280;31437;58.350;13.828;2022-09-24T06:30:49;100057.75;;;13.60;100.00
45525;BME280;31437;58.350;13.828;2022-09-24T06:33:15;100013.91;;;13.59;100.00
45525;BME280;31437;58.350;13.828;2022-09-24T06:35:40;99952.66;;;13.68;100.00
45525;BME280;31437;58.350;13.828;2022-09-24T06:38:07;99889.44;;;13.79;100.00
45525;BME280;31437;58.350;13.828;2022-09-24T06:40:34;99835.75;;;14.04;100.00
45525;BME280;31437;58.350;13.828;2022-09-24T06:42:59;99787.03;;;14.21;100.00
45525;BME280;31437;58.350;13.828;2022-09-24T06:45:25;99743.19;;;14.43;100.00
45525;BME280;31437;58.350;13.828;2022-09-24T06:47:54;99708.19;;;14.63;100.00
45525;BME280;31437;58.350;13.828;2022-09-24T06:50:20;99668.94;;;14.70;100.00
45525;BME280;31437;58.350;13.828;2022-09-24T06:52:45;99648.78;;;14.80;100.00
45525;BME280;31437;58.350;13.828;2022-09-24T06:55:10;99629.53;;;15.01;100.00
45525;BME280;31437;58.350;13.828;2022-09-24T06:57:36;99613.22;;;15.28;100.00
45525;BME280;31437;58.350;13.828;2022-09-24T07:00:01;99585.13;;;15.27;100.00
45525;BME280;31437;58.350;13.828;2022-09-24T07:02:27;99585.25;;;15.46;100.00
45525;BME280;31437;58.350;13.828;2022-09-24T07:04:54;99579.72;;;15.70;100.00
45525;BME280;31437;58.350;13.828;2022-09-24T07:07:19;99559.66;;;15.88;100.00
45525;BME280;31437;58.350;13.828;2022-09-24T07:09:54;99550.94;;;16.07;100.00
45525;BME280;31437;58.350;13.828;2022-09-24T07:12:19;99539.72;;;16.25;100.00
45525;BME280;31437;58.350;13.828;2022-09-24T07:14:44;99545.88;;;16.35;100.00
45525;BME280;31437;58.350;13.828;2022-09-24T07:17:10;99547.31;;;16.49;100.00
45525;BME280;31437;58.350;13.828;2022-09-24T07:19:35;99540.63;;;16.54;100.00
45525;BME280;31437;58.350;13.828;2022-09-24T07:22:02;99533.78;;;16.52;100.00
45525;BME280;31437;58.350;13.828;2022-09-24T07:24:27;99533.22;;;16.39;100.00
45525;BME280;31437;58.350;13.828;2022-09-24T07:26:52;99528.75;;;16.39;100.00
45525;BME280;31437;58.350;13.828;2022-09-24T07:29:18;99534.91;;;16.49;100.00
45525;BME280;31437;58.350;13.828;2022-09-24T07:31:43;99533.91;;;16.41;100.00
45525;BME280;31437;58.350;13.828;2022-09-24T07:34:09;99532.81;;;16.43;100.00
45525;BME280;31437;58.350;13.828;2022-09-24T07:36:34;99534.50;;;16.54;100.00
45525;BME280;31437;58.350;13.828;2022-09-24T07:38:59;99529.91;;;16.66;100.00
45525;BME280;31437;58.350;13.828;2022-09-24T07:41:25;99523.63;;;16.67;100.00
45525;BME280;31437;58.350;13.828;2022-09-24T07:43:51;99528.97;;;16.76;100.00
45525;BME280;31437;58.350;13.828;2022-09-24T07:46:17;99519.38;;;16.95;100.00
45525;BME280;31437;58.350;13.828;2022-09-24T07:48:43;99531.06;;;17.12;100.00
45525;BME280;31437;58.350;13.828;2022-09-24T07:51:09;99538.59;;;17.36;100.00
45525;BME280;31437;58.350;13.828;2022-09-24T07:53:34;99531.88;;;17.41;100.00
45525;BME280;31437;58.350;13.828;2022-09-24T07:55:59;99537.28;;;17.49;100.00
45525;BME280;31437;58.350;13.828;2022-09-24T07:58:25;99529.97;;;17.71;100.00
45525;BME280;31437;58.350;13.828;2022-09-24T08:00:50;99537.75;;;17.92;100.00
45525;BME280;31437;58.350;13.828;2022-09-24T08:03:16;99535.63;;;17.96;100.00
45525;BME280;31437;58.350;13.828;2022-09-24T08:05:42;99532.44;;;17.92;100.00
45525;BME280;31437;58.350;13.828;2022-09-24T08:08:09;99530.75;;;17.91;100.00
45525;BME280;31437;58.350;13.828;2022-09-24T08:10:34;99528.84;;;18.11;100.00
45525;BME280;31437;58.350;13.828;2022-09-24T08:13:02;99529.81;;;17.82;100.00
45525;BME280;31437;58.350;13.828;2022-09-24T08:15:29;99523.03;;;17.60;100.00
45525;BME280;31437;58.350;13.828;2022-09-24T08:17:59;99528.94;;;17.44;100.00
45525;BME280;31437;58.350;13.828;2022-09-24T08:20:24;99526.84;;;17.29;100.00
45525;BME280;31437;58.350;13.828;2022-09-24T08:22:50;99534.81;;;17.19;100.00
45525;BME280;31437;58.350;13.828;2022-09-24T08:25:15;99532.88;;;17.21;100.00
45525;BME280;31437;58.350;13.828;2022-09-24T08:27:40;99534.00;;;17.18;100.00
45525;BME280;31437;58.350;13.828;2022-09-24T08:30:07;99531.22;;;16.91;100.00
45525;BME280;31437;58.350;13.828;2022-09-24T08:32:32;99534.78;;;16.51;100.00
45525;BME280;31437;58.350;13.828;2022-09-24T08:34:58;99530.16;;;16.43;100.00
45525;BME280;31437;58.350;13.828;2022-09-24T08:37:24;99542.03;;;16.58;100.00
45525;BME280;31437;58.350;13.828;2022-09-24T08:39:50;99545.03;;;16.34;100.00
45525;BME280;31437;58.350;13.828;2022-09-24T08:44:48;99545.97;;;15.83;100.00
45525;BME280;31437;58.350;13.828;2022-09-24T08:47:37;99561.91;;;15.72;100.00
45525;BME280;31437;58.350;13.828;2022-09-24T08:50:17;99568.34;;;15.58;100.00
45525;BME280;31437;58.350;13.828;2022-09-24T08:52:55;99565.38;;;15.52;100.00
45525;BME280;31437;58.350;13.828;2022-09-24T08:55:40;99572.50;;;15.30;100.00
45525;BME280;31437;58.350;13.828;2022-09-24T09:00:39;99567.38;;;15.17;100.00
45525;BME280;31437;58.350;13.828;2022-09-24T09:03:11;99567.03;;;15.11;100.00
45525;BME280;31437;58.350;13.828;2022-09-24T09:08:31;99569.66;;;14.90;100.00
45525;BME280;31437;58.350;13.828;2022-09-24T09:10:59;99569.78;;;14.88;100.00
45525;BME280;31437;58.350;13.828;2022-09-24T09:13:28;99566.53;;;14.85;100.00
45525;BME280;31437;58.350;13.828;2022-09-24T09:16:04;99574.19;;;14.99;100.00
45525;BME280;31437;58.350;13.828;2022-09-24T09:18:35;99581.94;;;15.12;100.00
45525;BME280;31437;58.350;13.828;2022-09-24T09:21:15;99581.50;;;15.28;100.00
45525;BME280;31437;58.350;13.828;2022-09-24T09:23:47;99579.00;;;15.47;100.00
45525;BME280;31437;58.350;13.828;2022-09-24T09:26:17;99581.91;;;15.65;100.00
45525;BME280;31437;58.350;13.828;2022-09-24T09:28:44;99567.69;;;15.87;100.00
45525;BME280;31437;58.350;13.828;2022-09-24T09:33:45;99567.63;;;15.98;100.00
45525;BME280;31437;58.350;13.828;2022-09-24T09:41:44;99555.50;;;16.36;100.00
45525;BME280;31437;58.350;13.828;2022-09-24T09:44:29;99551.22;;;16.45;100.00
45525;BME280;31437;58.350;13.828;2022-09-24T09:47:09;99541.34;;;16.56;100.00
45525;BME280;31437;58.350;13.828;2022-09-24T09:49:35;99537.91;;;16.85;100.00
45525;BME280;31437;58.350;13.828;2022-09-24T09:52:03;99530.22;;;17.11;100.00
45525;BME280;31437;58.350;13.828;2022-09-24T09:54:36;99527.69;;;17.39;100.00
45525;BME280;31437;58.350;13.828;2022-09-24T09:57:02;99521.63;;;17.66;100.00
45525;BME280;31437;58.350;13.828;2022-09-24T09:59:28;99526.06;;;17.75;100.00
45525;BME280;31437;58.350;13.828;2022-09-24T10:01:58;99524.50;;;17.73;100.00
45525;BME280;31437;58.350;13.828;2022-09-24T10:07:06;99523.28;;;17.67;100.00
45525;BME280;31437;58.350;13.828;2022-09-24T10:09:32;99519.66;;;17.78;100.00
45525;BME280;31437;58.350;13.828;2022-09-24T10:14:38;99523.16;;;17.68;100.00
45525;BME280;31437;58.350;13.828;2022-09-24T10:17:03;99520.09;;;17.63;100.00
45525;BME280;31437;58.350;13.828;2022-09-24T10:19:30;99524.19;;;17.48;100.00
45525;BME280;31437;58.350;13.828;2022-09-24T10:21:57;99518.91;;;17.38;100.00
45525;BME280;31437;58.350;13.828;2022-09-24T10:24:31;99525.03;;;17.29;100.00
45525;BME280;31437;58.350;13.828;2022-09-24T10:26:59;99519.34;;;17.14;100.00
45525;BME280;31437;58.350;13.828;2022-09-24T10:29:25;99522.84;;;16.95;100.00
45525;BME280;31437;58.350;13.828;2022-09-24T10:32:19;99518.63;;;16.73;100.00
45525;BME280;31437;58.350;13.828;2022-09-24T10:34:59;99512.22;;;16.56;100.00
45525;BME280;31437;58.350;13.828;2022-09-24T10:37:26;99522.38;;;16.42;100.00
45525;BME280;31437;58.350;13.828;2022-09-24T10:40:09;99524.00;;;16.33;100.00
45525;BME280;31437;58.350;13.828;2022-09-24T10:42:36;99518.81;;;16.12;100.00
45525;BME280;31437;58.350;13.828;2022-09-24T10:45:02;99519.19;;;16.07;100.00
45525;BME280;31437;58.350;13.828;2022-09-24T10:52:45;99516.84;;;16.14;100.00
45525;BME280;31437;58.350;13.828;2022-09-24T10:58:02;99512.44;;;16.24;100.00
45525;BME280;31437;58.350;13.828;2022-09-24T11:00:36;99509.91;;;16.23;100.00
45525;BME280;31437;58.350;13.828;2022-09-24T11:05:39;99513.63;;;16.10;100.00
45525;BME280;31437;58.350;13.828;2022-09-24T11:23:49;99515.16;;;15.73;100.00
45525;BME280;31437;58.350;13.828;2022-09-24T11:36:54;99513.69;;;16.30;100.00
45525;BME280;31437;58.350;13.828;2022-09-24T11:52:37;99501.50;;;16.68;100.00
45525;BME280;31437;58.350;13.828;2022-09-24T11:55:25;99505.84;;;16.78;100.00
45525;BME280;31437;58.350;13.828;2022-09-24T12:00:24;99509.31;;;16.98;100.00
45525;BME280;31437;58.350;13.828;2022-09-24T12:02:56;99512.41;;;17.03;100.00
45525;BME280;31437;58.350;13.828;2022-09-24T12:07:54;99510.56;;;17.14;100.00
45525;BME280;31437;58.350;13.828;2022-09-24T12:12:51;99515.00;;;17.23;100.00
45525;BME280;31437;58.350;13.828;2022-09-24T12:15:26;99510.00;;;17.20;100.00
45525;BME280;31437;58.350;13.828;2022-09-24T12:17:57;99508.34;;;17.19;100.00
45525;BME280;31437;58.350;13.828;2022-09-24T12:20:30;99509.03;;;17.21;100.00
45525;BME280;31437;58.350;13.828;2022-09-24T12:23:00;99511.25;;;17.25;100.00
45525;BME280;31437;58.350;13.828;2022-09-24T12:25:33;99504.69;;;17.20;100.00
45525;BME280;31437;58.350;13.828;2022-09-24T12:28:03;99499.97;;;17.14;100.00
45525;BME280;31437;58.350;13.828;2022-09-24T12:38:46;99494.09;;;16.62;100.00
45525;BME280;31437;58.350;13.828;2022-09-24T12:46:20;99507.53;;;16.29;100.00
45525;BME280;31437;58.350;13.828;2022-09-24T12:48:47;99496.28;;;16.27;100.00
45525;BME280;31437;58.350;13.828;2022-09-24T12:51:13;99510.06;;;16.21;100.00
45525;BME280;31437;58.350;13.828;2022-09-24T12:53:40;99508.53;;;16.19;100.00
45525;BME280;31437;58.350;13.828;2022-09-24T12:56:06;99510.59;;;16.15;100.00
45525;BME280;31437;58.350;13.828;2022-09-24T12:58:40;99507.25;;;16.13;100.00
45525;BME280;31437;58.350;13.828;2022-09-24T13:01:07;99504.72;;;16.11;100.00
45525;BME280;31437;58.350;13.828;2022-09-24T13:03:36;99506.69;;;16.09;100.00
45525;BME280;31437;58.350;13.828;2022-09-24T13:06:02;99510.44;;;16.07;100.00
45525;BME280;31437;58.350;13.828;2022-09-24T13:08:36;99509.59;;;16.06;100.00
45525;BME280;31437;58.350;13.828;2022-09-24T13:11:03;99511.53;;;16.04;100.00
45525;BME280;31437;58.350;13.828;2022-09-24T13:13:32;99507.75;;;15.97;100.00
45525;BME280;31437;58.350;13.828;2022-09-24T13:16:03;99513.44;;;15.93;100.00
45525;BME280;31437;58.350;13.828;2022-09-24T13:18:30;99521.09;;;15.86;100.00
45525;BME280;31437;58.350;13.828;2022-09-24T13:20:56;99522.03;;;15.85;100.00
45525;BME280;31437;58.350;13.828;2022-09-24T13:25:59;99526.03;;;15.79;100.00
45525;BME280;31437;58.350;13.828;2022-09-24T13:33:43;99529.09;;;15.75;100.00
45525;BME280;31437;58.350;13.828;2022-09-24T13:36:13;99531.28;;;15.70;100.00
45525;BME280;31437;58.350;13.828;2022-09-24T13:38:48;99527.94;;;15.67;100.00
45525;BME280;31437;58.350;13.828;2022-09-24T13:43:59;99526.66;;;15.62;100.00
45525;BME280;31437;58.350;13.828;2022-09-24T13:46:27;99530.38;;;15.59;100.00
45525;BME280;31437;58.350;13.828;2022-09-24T13:48:55;99526.31;;;15.55;100.00
45525;BME280;31437;58.350;13.828;2022-09-24T13:51:27;99526.19;;;15.57;100.00
45525;BME280;31437;58.350;13.828;2022-09-24T13:56:19;99530.13;;;15.62;100.00
45525;BME280;31437;58.350;13.828;2022-09-24T13:58:45;99533.44;;;15.64;100.00
45525;BME280;31437;58.350;13.828;2022-09-24T14:01:13;99537.06;;;15.63;100.00
45525;BME280;31437;58.350;13.828;2022-09-24T14:03:40;99538.56;;;15.56;100.00
45525;BME280;31437;58.350;13.828;2022-09-24T14:06:09;99536.31;;;15.52;100.00
45525;BME280;31437;58.350;13.828;2022-09-24T14:08:35;99541.03;;;15.48;100.00
45525;BME280;31437;58.350;13.828;2022-09-24T14:11:03;99538.06;;;15.41;100.00
45525;BME280;31437;58.350;13.828;2022-09-24T14:13:32;99545.66;;;15.35;100.00
45525;BME280;31437;58.350;13.828;2022-09-24T14:16:08;99541.16;;;15.26;100.00
45525;BME280;31437;58.350;13.828;2022-09-24T14:18:34;99545.16;;;15.20;100.00
45525;BME280;31437;58.350;13.828;2022-09-24T14:21:12;99542.06;;;15.15;100.00
45525;BME280;31437;58.350;13.828;2022-09-24T14:23:41;99550.72;;;15.06;100.00
45525;BME280;31437;58.350;13.828;2022-09-24T14:26:07;99544.53;;;14.95;100.00
45525;BME280;31437;58.350;13.828;2022-09-24T14:28:36;99546.50;;;14.82;100.00
45525;BME280;31437;58.350;13.828;2022-09-24T14:31:02;99550.16;;;14.70;100.00
45525;BME280;31437;58.350;13.828;2022-09-24T14:33:31;99547.53;;;14.59;100.00
45525;BME280;31437;58.350;13.828;2022-09-24T14:35:58;99556.16;;;14.49;100.00
45525;BME280;31437;58.350;13.828;2022-09-24T14:38:35;99553.34;;;14.41;100.00
45525;BME280;31437;58.350;13.828;2022-09-24T14:41:18;99558.38;;;14.33;100.00
45525;BME280;31437;58.350;13.828;2022-09-24T14:43:51;99550.34;;;14.23;100.00
45525;BME280;31437;58.350;13.828;2022-09-24T14:46:19;99554.66;;;14.13;100.00
45525;BME280;31437;58.350;13.828;2022-09-24T14:48:46;99553.34;;;14.07;100.00
45525;BME280;31437;58.350;13.828;2022-09-24T14:51:25;99556.59;;;14.00;100.00
45525;BME280;31437;58.350;13.828;2022-09-24T14:53:57;99542.19;;;13.81;100.00